sensor_id;sensor_type;location;lat;lon;timestamp;pressure;altitude;pressure_sealevel;temperature;humidity
67980;BME280;54760;47.490;19.030;2024-02-04T00:02:03;100524.16;;;10.31;67.96
67980;BME280;54760;47.490;19.030;2024-02-04T00:04:29;100522.31;;;10.21;68.36
67980;BME280;54760;47.490;19.030;2024-02-04T00:06:54;100517.84;;;10.38;67.56
67980;BME280;54760;47.490;19.030;2024-02-04T00:09:20;100522.19;;;10.32;67.88
67980;BME280;54760;47.490;19.030;2024-02-04T00:11:46;100518.69;;;10.31;67.78
67980;BME280;54760;47.490;19.030;2024-02-04T00:14:11;100524.94;;;10.32;67.80
67980;BME280;54760;47.490;19.030;2024-02-04T00:16:37;100524.16;;;10.31;67.84
67980;BME280;54760;47.490;19.030;2024-02-04T00:19:03;100518.75;;;10.24;68.25
67980;BME280;54760;47.490;19.030;2024-02-04T00:21:28;100519.88;;;10.30;67.79
67980;BME280;54760;47.490;19.030;2024-02-04T00:23:53;100528.87;;;10.27;68.12
67980;BME280;54760;47.490;19.030;2024-02-04T00:26:19;100513.88;;;10.42;67.70
67980;BME280;54760;47.490;19.030;2024-02-04T00:28:44;100511.16;;;10.42;67.26
67980;BME280;54760;47.490;19.030;2024-02-04T00:31:10;100518.13;;;10.06;68.96
67980;BME280;54760;47.490;19.030;2024-02-04T00:33:35;100520.72;;;10.24;68.28
67980;BME280;54760;47.490;19.030;2024-02-04T00:36:00;100519.59;;;10.18;68.51
67980;BME280;54760;47.490;19.030;2024-02-04T00:38:26;100528.22;;;10.13;68.83
67980;BME280;54760;47.490;19.030;2024-02-04T00:40:53;100525.25;;;9.96;69.52
67980;BME280;54760;47.490;19.030;2024-02-04T00:43:20;100521.22;;;10.08;69.42
67980;BME280;54760;47.490;19.030;2024-02-04T00:45:45;100524.50;;;9.89;69.93
67980;BME280;54760;47.490;19.030;2024-02-04T00:48:11;100527.94;;;10.00;69.69
67980;BME280;54760;47.490;19.030;2024-02-04T00:50:36;100531.78;;;10.10;69.37
67980;BME280;54760;47.490;19.030;2024-02-04T00:53:01;100538.50;;;9.98;70.04
67980;BME280;54760;47.490;19.030;2024-02-04T00:55:27;100532.91;;;10.12;69.23
67980;BME280;54760;47.490;19.030;2024-02-04T00:57:52;100531.50;;;9.93;70.05
67980;BME280;54760;47.490;19.030;2024-02-04T01:00:18;100532.97;;;10.05;69.89
67980;BME280;54760;47.490;19.030;2024-02-04T01:02:43;100539.94;;;10.13;69.50
67980;BME280;54760;47.490;19.030;2024-02-04T01:05:09;100533.41;;;10.00;69.85
67980;BME280;54760;47.490;19.030;2024-02-04T01:07:34;100516.34;;;9.85;70.60
67980;BME280;54760;47.490;19.030;2024-02-04T01:10:00;100515.97;;;9.87;70.41
67980;BME280;54760;47.490;19.030;2024-02-04T01:12:25;100501.09;;;9.88;70.38
67980;BME280;54760;47.490;19.030;2024-02-04T01:14:51;100496.47;;;9.78;70.69
67980;BME280;54760;47.490;19.030;2024-02-04T01:17:16;100484.00;;;9.77;70.88
67980;BME280;54760;47.490;19.030;2024-02-04T01:19:41;100488.69;;;9.73;71.15
67980;BME280;54760;47.490;19.030;2024-02-04T01:22:07;100492.72;;;9.61;71.66
67980;BME280;54760;47.490;19.030;2024-02-04T01:24:32;100497.44;;;9.53;72.27
67980;BME280;54760;47.490;19.030;2024-02-04T01:26:58;100480.25;;;9.56;72.18
67980;BME280;54760;47.490;19.030;2024-02-04T01:29:23;100484.97;;;9.52;72.45
67980;BME280;54760;47.490;19.030;2024-02-04T01:31:48;100490.38;;;9.60;72.39
67980;BME280;54760;47.490;19.030;2024-02-04T01:34:14;100481.37;;;9.63;72.46
67980;BME280;54760;47.490;19.030;2024-02-04T01:36:39;100479.31;;;9.77;71.96
67980;BME280;54760;47.490;19.030;2024-02-04T01:39:05;100477.72;;;9.80;71.89
67980;BME280;54760;47.490;19.030;2024-02-04T01:41:30;100474.50;;;9.88;71.60
67980;BME280;54760;47.490;19.030;2024-02-04T01:43:56;100469.62;;;9.66;72.50
67980;BME280;54760;47.490;19.030;2024-02-04T01:46:22;100460.31;;;9.60;73.06
67980;BME280;54760;47.490;19.030;2024-02-04T01:48:48;100470.87;;;9.57;73.30
67980;BME280;54760;47.490;19.030;2024-02-04T01:51:14;100454.84;;;9.60;73.26
67980;BME280;54760;47.490;19.030;2024-02-04T01:53:42;100457.66;;;9.49;73.88
67980;BME280;54760;47.490;19.030;2024-02-04T01:56:10;100452.19;;;9.52;73.72
67980;BME280;54760;47.490;19.030;2024-02-04T01:58:35;100465.16;;;9.41;74.21
67980;BME280;54760;47.490;19.030;2024-02-04T02:01:01;100461.88;;;9.61;73.51
67980;BME280;54760;47.490;19.030;2024-02-04T02:03:28;100477.50;;;9.60;73.73
67980;BME280;54760;47.490;19.030;2024-02-04T02:05:56;100461.47;;;9.58;73.72
67980;BME280;54760;47.490;19.030;2024-02-04T02:08:21;100456.03;;;9.58;74.18
67980;BME280;54760;47.490;19.030;2024-02-04T02:10:48;100460.03;;;9.43;74.66
67980;BME280;54760;47.490;19.030;2024-02-04T02:13:23;100455.53;;;9.71;73.77
67980;BME280;54760;47.490;19.030;2024-02-04T02:15:58;100454.91;;;9.52;74.58
67980;BME280;54760;47.490;19.030;2024-02-04T02:18:42;100447.25;;;9.30;75.73
67980;BME280;54760;47.490;19.030;2024-02-04T02:21:19;100456.12;;;9.44;75.55
67980;BME280;54760;47.490;19.030;2024-02-04T02:26:40;100437.75;;;9.48;75.38
67980;BME280;54760;47.490;19.030;2024-02-04T02:29:06;100432.44;;;9.31;76.64
67980;BME280;54760;47.490;19.030;2024-02-04T02:31:36;100432.81;;;9.29;76.92
67980;BME280;54760;47.490;19.030;2024-02-04T02:34:03;100427.47;;;9.19;77.61
67980;BME280;54760;47.490;19.030;2024-02-04T02:36:36;100436.31;;;9.33;77.20
67980;BME280;54760;47.490;19.030;2024-02-04T02:39:10;100436.06;;;9.13;78.06
67980;BME280;54760;47.490;19.030;2024-02-04T02:41:42;100447.69;;;9.28;77.82
67980;BME280;54760;47.490;19.030;2024-02-04T02:44:08;100442.69;;;9.12;78.61
67980;BME280;54760;47.490;19.030;2024-02-04T02:46:36;100441.84;;;9.23;78.38
67980;BME280;54760;47.490;19.030;2024-02-04T02:49:02;100434.84;;;9.22;78.28
67980;BME280;54760;47.490;19.030;2024-02-04T02:51:28;100428.97;;;9.20;78.49
67980;BME280;54760;47.490;19.030;2024-02-04T02:53:53;100430.56;;;9.17;78.75
67980;BME280;54760;47.490;19.030;2024-02-04T02:56:19;100427.47;;;9.15;79.15
67980;BME280;54760;47.490;19.030;2024-02-04T02:58:44;100428.59;;;9.21;78.55
67980;BME280;54760;47.490;19.030;2024-02-04T03:01:09;100432.09;;;9.22;78.77
67980;BME280;54760;47.490;19.030;2024-02-04T03:03:35;100431.34;;;9.14;79.10
67980;BME280;54760;47.490;19.030;2024-02-04T03:06:00;100430.59;;;9.13;79.51
67980;BME280;54760;47.490;19.030;2024-02-04T03:08:26;100418.56;;;9.04;79.75
67980;BME280;54760;47.490;19.030;2024-02-04T03:10:51;100427.56;;;9.01;80.47
67980;BME280;54760;47.490;19.030;2024-02-04T03:13:16;100428.31;;;9.05;80.42
67980;BME280;54760;47.490;19.030;2024-02-04T03:15:42;100414.97;;;9.18;79.81
67980;BME280;54760;47.490;19.030;2024-02-04T03:18:08;100418.12;;;9.09;80.37
67980;BME280;54760;47.490;19.030;2024-02-04T03:20:33;100420.53;;;9.00;80.82
67980;BME280;54760;47.490;19.030;2024-02-04T03:22:58;100429.84;;;9.13;80.30
67980;BME280;54760;47.490;19.030;2024-02-04T03:25:24;100440.44;;;9.04;80.94
67980;BME280;54760;47.490;19.030;2024-02-04T03:27:52;100450.16;;;9.08;80.95
67980;BME280;54760;47.490;19.030;2024-02-04T03:30:18;100447.81;;;9.07;80.89
67980;BME280;54760;47.490;19.030;2024-02-04T03:32:43;100442.69;;;9.12;80.90
67980;BME280;54760;47.490;19.030;2024-02-04T03:35:09;100452.44;;;9.17;80.65
67980;BME280;54760;47.490;19.030;2024-02-04T03:37:34;100447.75;;;9.14;80.79
67980;BME280;54760;47.490;19.030;2024-02-04T03:39:59;100457.97;;;8.99;81.69
67980;BME280;54760;47.490;19.030;2024-02-04T03:42:25;100446.97;;;9.17;80.52
67980;BME280;54760;47.490;19.030;2024-02-04T03:44:50;100454.03;;;9.07;80.95
67980;BME280;54760;47.490;19.030;2024-02-04T03:47:16;100465.25;;;9.27;80.28
67980;BME280;54760;47.490;19.030;2024-02-04T03:49:41;100468.06;;;9.13;81.13
67980;BME280;54760;47.490;19.030;2024-02-04T03:52:06;100474.22;;;9.24;80.70
67980;BME280;54760;47.490;19.030;2024-02-04T03:54:32;100468.75;;;9.24;80.84
67980;BME280;54760;47.490;19.030;2024-02-04T03:56:57;100477.44;;;9.12;81.12
67980;BME280;54760;47.490;19.030;2024-02-04T03:59:23;100467.16;;;9.30;80.43
67980;BME280;54760;47.490;19.030;2024-02-04T04:01:49;100478.84;;;9.34;80.57
67980;BME280;54760;47.490;19.030;2024-02-04T04:04:18;100477.63;;;9.42;80.13
67980;BME280;54760;47.490;19.030;2024-02-04T04:06:45;100480.47;;;9.28;80.60
67980;BME280;54760;47.490;19.030;2024-02-04T04:09:10;100489.06;;;9.23;81.29
67980;BME280;54760;47.490;19.030;2024-02-04T04:11:36;100490.53;;;9.35;80.55
67980;BME280;54760;47.490;19.030;2024-02-04T04:14:02;100488.94;;;9.41;80.39
67980;BME280;54760;47.490;19.030;2024-02-04T04:16:27;100495.72;;;9.22;80.97
67980;BME280;54760;47.490;19.030;2024-02-04T04:18:53;100489.62;;;9.55;79.74
67980;BME280;54760;47.490;19.030;2024-02-04T04:21:18;100483.09;;;9.42;79.70
67980;BME280;54760;47.490;19.030;2024-02-04T04:23:44;100473.22;;;9.55;79.61
67980;BME280;54760;47.490;19.030;2024-02-04T04:26:09;100474.78;;;9.53;79.73
67980;BME280;54760;47.490;19.030;2024-02-04T04:28:35;100485.41;;;9.44;79.98
67980;BME280;54760;47.490;19.030;2024-02-04T04:31:00;100470.78;;;9.72;78.74
67980;BME280;54760;47.490;19.030;2024-02-04T04:33:26;100471.63;;;9.58;79.13
67980;BME280;54760;47.490;19.030;2024-02-04T04:35:51;100470.34;;;9.73;78.69
67980;BME280;54760;47.490;19.030;2024-02-04T04:38:16;100476.53;;;9.81;78.25
67980;BME280;54760;47.490;19.030;2024-02-04T04:40:42;100472.38;;;9.66;79.10
67980;BME280;54760;47.490;19.030;2024-02-04T04:43:07;100483.97;;;9.80;77.86
67980;BME280;54760;47.490;19.030;2024-02-04T04:45:33;100485.53;;;9.78;78.11
67980;BME280;54760;47.490;19.030;2024-02-04T04:47:58;100479.31;;;9.74;78.44
67980;BME280;54760;47.490;19.030;2024-02-04T04:50:23;100470.16;;;9.50;79.57
67980;BME280;54760;47.490;19.030;2024-02-04T04:52:49;100462.56;;;9.72;78.38
67980;BME280;54760;47.490;19.030;2024-02-04T04:55:14;100459.12;;;9.61;78.55
67980;BME280;54760;47.490;19.030;2024-02-04T04:57:40;100455.78;;;9.42;79.21
67980;BME280;54760;47.490;19.030;2024-02-04T05:00:06;100466.25;;;9.51;78.39
67980;BME280;54760;47.490;19.030;2024-02-04T05:02:32;100453.81;;;9.39;78.83
67980;BME280;54760;47.490;19.030;2024-02-04T05:04:59;100455.41;;;9.37;79.04
67980;BME280;54760;47.490;19.030;2024-02-04T05:07:24;100450.34;;;9.35;78.84
67980;BME280;54760;47.490;19.030;2024-02-04T05:09:51;100442.78;;;9.53;78.13
67980;BME280;54760;47.490;19.030;2024-02-04T05:12:17;100440.06;;;9.53;78.01
67980;BME280;54760;47.490;19.030;2024-02-04T05:14:43;100435.81;;;9.45;78.13
67980;BME280;54760;47.490;19.030;2024-02-04T05:17:08;100446.91;;;9.24;79.24
67980;BME280;54760;47.490;19.030;2024-02-04T05:19:34;100443.31;;;9.38;78.74
67980;BME280;54760;47.490;19.030;2024-02-04T05:22:00;100444.84;;;9.39;78.50
67980;BME280;54760;47.490;19.030;2024-02-04T05:24:26;100451.66;;;9.17;79.51
67980;BME280;54760;47.490;19.030;2024-02-04T05:26:51;100447.75;;;9.18;79.63
67980;BME280;54760;47.490;19.030;2024-02-04T05:29:16;100447.25;;;9.33;78.66
67980;BME280;54760;47.490;19.030;2024-02-04T05:31:43;100431.34;;;9.14;79.57
67980;BME280;54760;47.490;19.030;2024-02-04T05:34:09;100443.47;;;9.13;79.86
67980;BME280;54760;47.490;19.030;2024-02-04T05:36:34;100439.91;;;9.23;79.56
67980;BME280;54760;47.490;19.030;2024-02-04T05:39:14;100451.94;;;9.33;79.21
67980;BME280;54760;47.490;19.030;2024-02-04T05:41:40;100440.66;;;9.24;79.67
67980;BME280;54760;47.490;19.030;2024-02-04T05:44:05;100424.38;;;9.13;80.05
67980;BME280;54760;47.490;19.030;2024-02-04T05:46:32;100439.22;;;9.08;80.14
67980;BME280;54760;47.490;19.030;2024-02-04T05:48:57;100426.69;;;9.18;80.11
67980;BME280;54760;47.490;19.030;2024-02-04T05:51:22;100421.25;;;9.11;80.19
67980;BME280;54760;47.490;19.030;2024-02-04T05:53:48;100416.91;;;9.17;80.10
67980;BME280;54760;47.490;19.030;2024-02-04T05:56:13;100421.62;;;9.13;80.39
67980;BME280;54760;47.490;19.030;2024-02-04T05:58:39;100436.16;;;8.96;81.47
67980;BME280;54760;47.490;19.030;2024-02-04T06:01:05;100446.31;;;8.99;81.52
67980;BME280;54760;47.490;19.030;2024-02-04T06:03:31;100443.16;;;9.04;81.28
67980;BME280;54760;47.490;19.030;2024-02-04T06:05:56;100449.44;;;8.94;82.00
67980;BME280;54760;47.490;19.030;2024-02-04T06:08:21;100446.25;;;9.06;81.50
67980;BME280;54760;47.490;19.030;2024-02-04T06:10:47;100432.19;;;9.07;81.42
67980;BME280;54760;47.490;19.030;2024-02-04T06:13:12;100439.22;;;9.05;81.46
67980;BME280;54760;47.490;19.030;2024-02-04T06:15:37;100453.31;;;8.96;82.00
67980;BME280;54760;47.490;19.030;2024-02-04T06:18:03;100450.56;;;9.00;81.94
67980;BME280;54760;47.490;19.030;2024-02-04T06:20:28;100450.22;;;8.91;82.63
67980;BME280;54760;47.490;19.030;2024-02-04T06:22:54;100468.94;;;8.96;82.54
67980;BME280;54760;47.490;19.030;2024-02-04T06:25:19;100468.09;;;9.06;82.01
67980;BME280;54760;47.490;19.030;2024-02-04T06:27:45;100455.59;;;9.12;81.42
67980;BME280;54760;47.490;19.030;2024-02-04T06:30:11;100469.59;;;9.14;81.47
67980;BME280;54760;47.490;19.030;2024-02-04T06:32:36;100472.81;;;8.95;82.57
67980;BME280;54760;47.490;19.030;2024-02-04T06:35:01;100480.59;;;9.03;82.12
67980;BME280;54760;47.490;19.030;2024-02-04T06:37:27;100484.56;;;8.92;82.90
67980;BME280;54760;47.490;19.030;2024-02-04T06:39:53;100480.53;;;9.14;81.40
67980;BME280;54760;47.490;19.030;2024-02-04T06:42:18;100488.78;;;9.07;81.46
67980;BME280;54760;47.490;19.030;2024-02-04T06:44:44;100480.59;;;9.03;81.99
67980;BME280;54760;47.490;19.030;2024-02-04T06:47:11;100484.06;;;9.11;81.62
67980;BME280;54760;47.490;19.030;2024-02-04T06:49:39;100489.91;;;9.09;81.40
67980;BME280;54760;47.490;19.030;2024-02-04T06:52:04;100480.47;;;9.28;80.75
67980;BME280;54760;47.490;19.030;2024-02-04T06:54:30;100484.37;;;9.27;80.82
67980;BME280;54760;47.490;19.030;2024-02-04T06:56:55;100483.59;;;9.27;80.59
67980;BME280;54760;47.490;19.030;2024-02-04T06:59:21;100487.34;;;9.47;79.55
67980;BME280;54760;47.490;19.030;2024-02-04T07:01:46;100499.81;;;9.51;79.44
67980;BME280;54760;47.490;19.030;2024-02-04T07:04:12;100488.13;;;9.47;79.41
67980;BME280;54760;47.490;19.030;2024-02-04T07:06:37;100497.47;;;9.50;79.77
67980;BME280;54760;47.490;19.030;2024-02-04T07:09:03;100501.44;;;9.42;79.62
67980;BME280;54760;47.490;19.030;2024-02-04T07:11:28;100498.69;;;9.45;79.79
67980;BME280;54760;47.490;19.030;2024-02-04T07:13:54;100496.59;;;9.67;78.54
67980;BME280;54760;47.490;19.030;2024-02-04T07:16:27;100489.59;;;9.63;78.69
67980;BME280;54760;47.490;19.030;2024-02-04T07:18:54;100498.19;;;9.61;78.72
67980;BME280;54760;47.490;19.030;2024-02-04T07:21:19;100522.78;;;9.61;78.92
67980;BME280;54760;47.490;19.030;2024-02-04T07:23:45;100503.62;;;9.65;78.75
67980;BME280;54760;47.490;19.030;2024-02-04T07:26:10;100495.06;;;9.59;78.91
67980;BME280;54760;47.490;19.030;2024-02-04T07:28:37;100489.66;;;9.52;79.41
67980;BME280;54760;47.490;19.030;2024-02-04T07:31:02;100484.91;;;9.60;79.16
67980;BME280;54760;47.490;19.030;2024-02-04T07:33:28;100488.59;;;9.35;80.24
67980;BME280;54760;47.490;19.030;2024-02-04T07:35:53;100488.78;;;9.66;79.02
67980;BME280;54760;47.490;19.030;2024-02-04T07:38:18;100503.69;;;9.57;78.84
67980;BME280;54760;47.490;19.030;2024-02-04T07:40:44;100479.28;;;9.81;77.80
67980;BME280;54760;47.490;19.030;2024-02-04T07:43:09;100477.72;;;9.80;77.37
67980;BME280;54760;47.490;19.030;2024-02-04T07:45:35;100488.94;;;9.92;77.12
67980;BME280;54760;47.490;19.030;2024-02-04T07:48:00;100486.22;;;9.89;76.88
67980;BME280;54760;47.490;19.030;2024-02-04T07:50:27;100500.19;;;10.02;76.44
67980;BME280;54760;47.490;19.030;2024-02-04T07:52:53;100502.28;;;9.83;77.33
67980;BME280;54760;47.490;19.030;2024-02-04T07:55:18;100504.94;;;9.94;76.44
67980;BME280;54760;47.490;19.030;2024-02-04T07:57:44;100499.06;;;9.95;76.37
67980;BME280;54760;47.490;19.030;2024-02-04T08:00:10;100514.13;;;10.14;75.81
67980;BME280;54760;47.490;19.030;2024-02-04T08:02:36;100501.72;;;10.02;75.71
67980;BME280;54760;47.490;19.030;2024-02-04T08:05:02;100507.53;;;10.08;75.31
67980;BME280;54760;47.490;19.030;2024-02-04T08:07:28;100507.97;;;10.07;75.72
67980;BME280;54760;47.490;19.030;2024-02-04T08:09:53;100511.53;;;10.00;75.47
67980;BME280;54760;47.490;19.030;2024-02-04T08:12:19;100507.19;;;10.06;75.65
67980;BME280;54760;47.490;19.030;2024-02-04T08:14:44;100508.28;;;10.12;74.95
67980;BME280;54760;47.490;19.030;2024-02-04T08:17:10;100515.69;;;10.15;74.78
67980;BME280;54760;47.490;19.030;2024-02-04T08:19:35;100513.34;;;10.17;74.49
67980;BME280;54760;47.490;19.030;2024-02-04T08:22:01;100500.88;;;10.16;74.31
67980;BME280;54760;47.490;19.030;2024-02-04T08:24:26;100484.16;;;10.45;73.24
67980;BME280;54760;47.490;19.030;2024-02-04T08:26:52;100497.87;;;10.41;73.32
67980;BME280;54760;47.490;19.030;2024-02-04T08:29:18;100519.28;;;10.50;72.90
67980;BME280;54760;47.490;19.030;2024-02-04T08:31:43;100510.69;;;10.48;72.77
67980;BME280;54760;47.490;19.030;2024-02-04T08:34:09;100514.91;;;10.56;72.30
67980;BME280;54760;47.490;19.030;2024-02-04T08:36:34;100507.00;;;10.27;73.41
67980;BME280;54760;47.490;19.030;2024-02-04T08:38:59;100513.28;;;10.62;72.29
67980;BME280;54760;47.490;19.030;2024-02-04T08:41:25;100508.13;;;10.67;71.72
67980;BME280;54760;47.490;19.030;2024-02-04T08:43:50;100512.16;;;10.56;71.91
67980;BME280;54760;47.490;19.030;2024-02-04T08:46:15;100530.59;;;10.52;71.91
67980;BME280;54760;47.490;19.030;2024-02-04T08:48:41;100530.97;;;10.54;71.67
67980;BME280;54760;47.490;19.030;2024-02-04T08:51:14;100523.12;;;10.56;71.44
67980;BME280;54760;47.490;19.030;2024-02-04T08:53:41;100508.91;;;10.68;70.98
67980;BME280;54760;47.490;19.030;2024-02-04T08:56:07;100521.87;;;10.98;69.87
67980;BME280;54760;47.490;19.030;2024-02-04T08:58:33;100516.00;;;10.96;69.84
67980;BME280;54760;47.490;19.030;2024-02-04T09:00:59;100521.00;;;11.04;69.15
67980;BME280;54760;47.490;19.030;2024-02-04T09:03:24;100518.34;;;11.27;67.92
67980;BME280;54760;47.490;19.030;2024-02-04T09:05:49;100508.50;;;11.03;68.49
67980;BME280;54760;47.490;19.030;2024-02-04T09:08:15;100499.97;;;11.51;67.21
67980;BME280;54760;47.490;19.030;2024-02-04T09:10:40;100485.34;;;11.35;66.64
67980;BME280;54760;47.490;19.030;2024-02-04T09:13:06;100486.16;;;11.32;66.24
67980;BME280;54760;47.490;19.030;2024-02-04T09:15:32;100492.38;;;11.36;65.96
67980;BME280;54760;47.490;19.030;2024-02-04T09:17:57;100469.41;;;10.99;67.19
67980;BME280;54760;47.490;19.030;2024-02-04T09:20:23;100473.81;;;11.20;66.61
67980;BME280;54760;47.490;19.030;2024-02-04T09:22:48;100464.66;;;11.03;67.05
67980;BME280;54760;47.490;19.030;2024-02-04T09:25:13;100465.56;;;11.23;66.54
67980;BME280;54760;47.490;19.030;2024-02-04T09:27:40;100484.72;;;11.23;66.44
67980;BME280;54760;47.490;19.030;2024-02-04T09:30:06;100478.44;;;11.50;65.77
67980;BME280;54760;47.490;19.030;2024-02-04T09:32:32;100489.56;;;11.66;64.93
67980;BME280;54760;47.490;19.030;2024-02-04T09:34:57;100487.03;;;11.79;64.13
67980;BME280;54760;47.490;19.030;2024-02-04T09:37:24;100485.97;;;11.96;62.92
67980;BME280;54760;47.490;19.030;2024-02-04T09:39:49;100493.91;;;11.90;63.32
67980;BME280;54760;47.490;19.030;2024-02-04T09:42:21;100494.84;;;11.80;63.91
67980;BME280;54760;47.490;19.030;2024-02-04T09:44:51;100478.94;;;11.95;63.45
67980;BME280;54760;47.490;19.030;2024-02-04T09:47:17;100485.19;;;11.95;63.46
67980;BME280;54760;47.490;19.030;2024-02-04T09:49:43;100479.50;;;11.83;63.83
67980;BME280;54760;47.490;19.030;2024-02-04T09:52:09;100488.34;;;11.94;63.64
67980;BME280;54760;47.490;19.030;2024-02-04T09:54:44;100483.12;;;12.23;62.94
67980;BME280;54760;47.490;19.030;2024-02-04T09:57:10;100487.63;;;12.13;63.11
67980;BME280;54760;47.490;19.030;2024-02-04T09:59:36;100497.25;;;12.44;62.22
67980;BME280;54760;47.490;19.030;2024-02-04T10:02:03;100486.34;;;12.18;63.19
67980;BME280;54760;47.490;19.030;2024-02-04T10:04:28;100489.84;;;11.98;63.91
67980;BME280;54760;47.490;19.030;2024-02-04T10:06:54;100474.00;;;12.29;62.81
67980;BME280;54760;47.490;19.030;2024-02-04T10:09:19;100488.37;;;12.56;61.98
67980;BME280;54760;47.490;19.030;2024-02-04T10:11:45;100490.81;;;12.71;60.95
67980;BME280;54760;47.490;19.030;2024-02-04T10:14:11;100479.41;;;12.33;61.94
67980;BME280;54760;47.490;19.030;2024-02-04T10:16:37;100468.16;;;12.47;61.22
67980;BME280;54760;47.490;19.030;2024-02-04T10:19:02;100458.03;;;12.44;61.04
67980;BME280;54760;47.490;19.030;2024-02-04T10:21:28;100462.44;;;12.38;61.10
67980;BME280;54760;47.490;19.030;2024-02-04T10:23:53;100456.16;;;12.96;59.41
67980;BME280;54760;47.490;19.030;2024-02-04T10:26:21;100433.87;;;12.91;58.55
67980;BME280;54760;47.490;19.030;2024-02-04T10:28:47;100456.91;;;12.97;58.64
67980;BME280;54760;47.490;19.030;2024-02-04T10:31:13;100443.63;;;12.76;59.22
67980;BME280;54760;47.490;19.030;2024-02-04T10:33:39;100440.34;;;12.84;59.10
67980;BME280;54760;47.490;19.030;2024-02-04T10:36:05;100432.38;;;12.90;58.53
67980;BME280;54760;47.490;19.030;2024-02-04T10:38:31;100416.22;;;12.92;58.29
67980;BME280;54760;47.490;19.030;2024-02-04T10:40:59;100410.13;;;12.84;58.40
67980;BME280;54760;47.490;19.030;2024-02-04T10:43:32;100417.13;;;12.85;58.27
67980;BME280;54760;47.490;19.030;2024-02-04T10:46:13;100413.78;;;13.14;57.80
67980;BME280;54760;47.490;19.030;2024-02-04T10:48:41;100416.37;;;13.21;56.97
67980;BME280;54760;47.490;19.030;2024-02-04T10:51:13;100428.03;;;13.25;56.84
67980;BME280;54760;47.490;19.030;2024-02-04T10:53:41;100428.31;;;13.30;56.86
67980;BME280;54760;47.490;19.030;2024-02-04T10:56:14;100406.91;;;13.22;57.68
67980;BME280;54760;47.490;19.030;2024-02-04T10:58:43;100408.41;;;13.07;57.75
67980;BME280;54760;47.490;19.030;2024-02-04T11:01:10;100410.78;;;13.40;57.02
67980;BME280;54760;47.490;19.030;2024-02-04T11:03:36;100397.13;;;13.53;56.91
67980;BME280;54760;47.490;19.030;2024-02-04T11:06:04;100394.91;;;13.48;56.93
67980;BME280;54760;47.490;19.030;2024-02-04T11:08:29;100402.44;;;13.60;56.48
67980;BME280;54760;47.490;19.030;2024-02-04T11:10:55;100402.75;;;13.78;55.66
67980;BME280;54760;47.490;19.030;2024-02-04T11:13:23;100399.69;;;13.44;56.61
67980;BME280;54760;47.490;19.030;2024-02-04T11:15:49;100389.56;;;13.41;56.58
67980;BME280;54760;47.490;19.030;2024-02-04T11:21:12;100402.81;;;13.46;56.07
67980;BME280;54760;47.490;19.030;2024-02-04T11:26:20;100410.81;;;14.02;54.29
67980;BME280;54760;47.490;19.030;2024-02-04T11:28:46;100403.47;;;13.50;55.83
67980;BME280;54760;47.490;19.030;2024-02-04T11:31:18;100400.53;;;13.73;55.00
67980;BME280;54760;47.490;19.030;2024-02-04T11:33:44;100413.06;;;13.91;54.66
67980;BME280;54760;47.490;19.030;2024-02-04T11:36:14;100405.84;;;13.80;53.86
67980;BME280;54760;47.490;19.030;2024-02-04T11:38:40;100394.53;;;13.62;54.40
67980;BME280;54760;47.490;19.030;2024-02-04T11:41:06;100388.16;;;13.81;53.75
67980;BME280;54760;47.490;19.030;2024-02-04T11:43:33;100385.72;;;13.83;53.84
67980;BME280;54760;47.490;19.030;2024-02-04T11:45:59;100388.81;;;13.85;53.89
67980;BME280;54760;47.490;19.030;2024-02-04T11:48:34;100373.72;;;13.77;53.91
67980;BME280;54760;47.490;19.030;2024-02-04T11:51:03;100372.44;;;14.23;52.44
67980;BME280;54760;47.490;19.030;2024-02-04T11:53:29;100380.16;;;14.28;51.54
67980;BME280;54760;47.490;19.030;2024-02-04T11:56:00;100362.25;;;14.08;52.28
67980;BME280;54760;47.490;19.030;2024-02-04T11:58:27;100366.37;;;14.16;52.14
67980;BME280;54760;47.490;19.030;2024-02-04T12:00:53;100366.63;;;13.93;52.72
67980;BME280;54760;47.490;19.030;2024-02-04T12:03:32;100358.69;;;13.95;52.87
67980;BME280;54760;47.490;19.030;2024-02-04T12:05:58;100357.12;;;14.22;52.18
67980;BME280;54760;47.490;19.030;2024-02-04T12:08:24;100355.69;;;14.18;52.15
67980;BME280;54760;47.490;19.030;2024-02-04T12:10:50;100338.09;;;13.86;52.94
67980;BME280;54760;47.490;19.030;2024-02-04T12:13:16;100333.28;;;14.03;51.74
67980;BME280;54760;47.490;19.030;2024-02-04T12:15:44;100324.06;;;14.10;51.75
67980;BME280;54760;47.490;19.030;2024-02-04T12:18:11;100343.00;;;14.08;51.81
67980;BME280;54760;47.490;19.030;2024-02-04T12:20:37;100329.22;;;14.08;51.91
67980;BME280;54760;47.490;19.030;2024-02-04T12:23:06;100333.53;;;14.09;52.04
67980;BME280;54760;47.490;19.030;2024-02-04T12:25:33;100334.56;;;14.27;51.92
67980;BME280;54760;47.490;19.030;2024-02-04T12:27:59;100341.84;;;14.21;51.59
67980;BME280;54760;47.490;19.030;2024-02-04T12:30:26;100347.62;;;14.11;52.11
67980;BME280;54760;47.490;19.030;2024-02-04T12:33:05;100362.66;;;13.94;52.47
67980;BME280;54760;47.490;19.030;2024-02-04T12:35:31;100356.06;;;13.91;52.86
67980;BME280;54760;47.490;19.030;2024-02-04T12:37:58;100364.06;;;13.85;52.94
67980;BME280;54760;47.490;19.030;2024-02-04T12:40:25;100359.78;;;13.68;53.79
67980;BME280;54760;47.490;19.030;2024-02-04T12:45:20;100379.06;;;13.20;55.32
67980;BME280;54760;47.490;19.030;2024-02-04T12:47:49;100375.31;;;13.30;55.33
67980;BME280;54760;47.490;19.030;2024-02-04T12:50:15;100366.72;;;13.12;56.23
67980;BME280;54760;47.490;19.030;2024-02-04T12:52:41;100372.91;;;13.32;55.62